createdAt,value
2022-12-19T00:00:33.452Z,11.95
2022-12-19T00:03:01.234Z,10.43
2022-12-19T00:05:29.512Z,10.70
2022-12-19T00:07:57.691Z,10.40
2022-12-19T00:10:27.141Z,8.93
2022-12-19T00:12:54.860Z,11.63
2022-12-19T00:15:22.704Z,11.05
2022-12-19T00:17:50.427Z,11.80
2022-12-19T00:20:19.386Z,11.95
2022-12-19T00:22:47.398Z,10.95
2022-12-19T00:25:17.783Z,10.73
2022-12-19T00:27:47.100Z,11.10
2022-12-19T00:30:15.404Z,10.05
2022-12-19T00:32:43.259Z,12.07
2022-12-19T00:35:11.193Z,10.32
2022-12-19T00:37:39.051Z,10.38
2022-12-19T00:40:13.565Z,9.93
2022-12-19T00:42:41.311Z,12.38
2022-12-19T00:45:10.086Z,10.95
2022-12-19T00:47:37.930Z,10.90
2022-12-19T00:50:06.220Z,11.35
2022-12-19T00:52:33.886Z,11.40
2022-12-19T00:55:02.067Z,10.88
2022-12-19T00:57:32.592Z,11.35
2022-12-19T01:00:00.672Z,10.57
2022-12-19T01:02:28.672Z,10.32
2022-12-19T01:04:56.610Z,10.55
2022-12-19T01:07:24.511Z,9.70
2022-12-19T01:09:53.409Z,9.55
2022-12-19T01:12:40.282Z,10.82
2022-12-19T01:15:08.336Z,10.48
2022-12-19T01:17:43.519Z,9.80
2022-12-19T01:20:15.962Z,12.02
2022-12-19T01:22:45.208Z,10.35
2022-12-19T01:25:15.532Z,10.45
2022-12-19T01:27:43.413Z,10.13
2022-12-19T01:30:12.206Z,11.30
2022-12-19T01:32:40.193Z,9.73
2022-12-19T01:35:13.372Z,10.45
2022-12-19T01:38:01.511Z,9.80
2022-12-19T01:40:36.873Z,9.13
2022-12-19T01:43:05.013Z,10.27
2022-12-19T01:45:42.197Z,6.97
2022-12-19T01:48:21.948Z,8.52
2022-12-19T01:51:01.859Z,8.50
2022-12-19T01:53:49.010Z,9.35
2022-12-19T01:56:24.767Z,9.32
2022-12-19T01:59:05.114Z,9.23
2022-12-19T02:01:50.934Z,9.23
2022-12-19T02:04:25.351Z,8.45
2022-12-19T02:06:56.539Z,8.90
2022-12-19T02:09:25.736Z,8.77
2022-12-19T02:11:54.245Z,7.60
2022-12-19T02:14:22.246Z,9.95
2022-12-19T02:17:12.523Z,8.90
2022-12-19T02:19:43.410Z,9.18
2022-12-19T02:22:27.827Z,10.02
2022-12-19T02:25:27.196Z,8.90
2022-12-19T02:28:22.512Z,8.95
2022-12-19T02:31:17.411Z,9.18
2022-12-19T02:34:01.911Z,9.68
2022-12-19T02:36:42.040Z,8.45
2022-12-19T02:39:27.615Z,8.00
2022-12-19T02:42:01.256Z,9.70
2022-12-19T02:44:43.065Z,9.80
2022-12-19T02:47:12.278Z,10.88
2022-12-19T02:49:40.710Z,9.20
2022-12-19T02:52:18.853Z,8.75
2022-12-19T02:54:50.618Z,9.25
2022-12-19T02:57:24.049Z,8.57
2022-12-19T03:00:06.498Z,8.60
2022-12-19T03:02:38.810Z,10.02
2022-12-19T03:05:45.188Z,8.40
2022-12-19T03:08:25.539Z,8.85
2022-12-19T03:11:05.187Z,9.32
2022-12-19T03:13:42.102Z,8.00
2022-12-19T03:16:11.608Z,7.43
2022-12-19T03:18:40.616Z,8.85
2022-12-19T03:21:29.724Z,8.82
2022-12-19T03:23:58.914Z,6.80
2022-12-19T03:26:32.409Z,9.30
2022-12-19T03:29:32.482Z,8.80
2022-12-19T03:32:05.734Z,10.82
2022-12-19T03:34:47.519Z,10.15
2022-12-19T03:37:19.404Z,8.60
2022-12-19T03:39:52.874Z,10.18
2022-12-19T03:42:43.693Z,10.98
2022-12-19T03:45:13.969Z,10.68
2022-12-19T03:47:49.289Z,10.02
2022-12-19T03:50:17.890Z,11.93
2022-12-19T03:52:53.429Z,12.15
2022-12-19T03:55:38.832Z,10.63
2022-12-19T03:58:12.028Z,10.25
2022-12-19T04:03:11.903Z,12.35
2022-12-19T04:05:42.713Z,12.15
2022-12-19T04:08:12.232Z,11.32
2022-12-19T04:10:51.762Z,10.60
2022-12-19T04:13:30.188Z,10.75
2022-12-19T04:16:19.931Z,11.50
2022-12-19T04:18:55.003Z,12.25
2022-12-19T04:21:32.110Z,10.60
2022-12-19T04:24:08.140Z,11.45
2022-12-19T04:26:36.807Z,10.85
2022-12-19T04:29:06.599Z,12.18
2022-12-19T04:31:36.143Z,10.60
2022-12-19T04:34:04.130Z,10.63
2022-12-19T04:36:32.268Z,10.30
2022-12-19T04:39:00.103Z,10.50
2022-12-19T04:41:28.409Z,12.30
2022-12-19T04:43:59.954Z,10.38
2022-12-19T04:46:27.879Z,9.00
2022-12-19T04:48:55.692Z,8.30
2022-12-19T04:51:23.967Z,9.82
2022-12-19T04:53:51.970Z,10.52
2022-12-19T04:56:19.851Z,9.63
2022-12-19T04:58:47.816Z,9.57
2022-12-19T05:01:16.102Z,9.32
2022-12-19T05:03:44.022Z,9.38
2022-12-19T05:06:15.202Z,11.75
2022-12-19T05:08:44.261Z,9.73
2022-12-19T05:11:19.223Z,9.98
2022-12-19T05:13:48.278Z,10.68
2022-12-19T05:16:16.335Z,9.77
2022-12-19T05:18:46.141Z,10.38
2022-12-19T05:21:14.223Z,10.00
2022-12-19T05:23:42.477Z,10.20
2022-12-19T05:26:12.046Z,10.27
2022-12-19T05:28:40.095Z,10.10
2022-12-19T05:31:10.730Z,8.90
2022-12-19T05:33:40.779Z,10.63
2022-12-19T05:36:10.130Z,10.57
2022-12-19T05:38:37.949Z,11.30
2022-12-19T05:41:18.466Z,10.27
2022-12-19T05:43:50.927Z,11.77
2022-12-19T05:46:19.468Z,11.35
2022-12-19T05:48:47.685Z,10.35
2022-12-19T05:51:15.591Z,11.82
2022-12-19T05:53:43.407Z,10.25
2022-12-19T05:56:22.603Z,12.13
2022-12-19T05:58:50.715Z,10.85
2022-12-19T06:01:24.138Z,11.80
2022-12-19T06:03:52.533Z,11.80
2022-12-19T06:06:25.652Z,13.38
2022-12-19T06:08:58.013Z,11.48
2022-12-19T06:11:27.179Z,13.68
2022-12-19T06:13:54.959Z,11.90
2022-12-19T06:16:23.779Z,12.80
2022-12-19T06:18:51.642Z,13.43
2022-12-19T06:21:21.955Z,14.07
2022-12-19T06:23:50.066Z,12.55
2022-12-19T06:26:20.663Z,13.45
2022-12-19T06:28:50.211Z,11.40
2022-12-19T06:31:19.776Z,15.90
2022-12-19T06:33:47.707Z,13.68
2022-12-19T06:36:28.579Z,13.40
2022-12-19T06:38:57.997Z,14.25
2022-12-19T06:41:44.760Z,14.00
2022-12-19T06:44:14.514Z,12.43
2022-12-19T06:46:42.846Z,15.25
2022-12-19T06:49:14.274Z,17.83
2022-12-19T06:51:42.916Z,14.00
2022-12-19T06:54:11.940Z,14.07
2022-12-19T06:56:41.748Z,15.23
2022-12-19T06:59:13.121Z,15.73
2022-12-19T07:01:52.764Z,15.88
2022-12-19T07:04:49.105Z,13.93
2022-12-19T07:07:17.282Z,13.10
2022-12-19T07:09:45.433Z,15.93
2022-12-19T07:12:13.114Z,14.23
2022-12-19T07:14:41.071Z,14.38
2022-12-19T07:17:09.054Z,16.65
2022-12-19T07:19:37.996Z,13.55
2022-12-19T07:22:06.855Z,15.10
2022-12-19T07:24:36.178Z,13.98
2022-12-19T07:27:09.325Z,13.38
2022-12-19T07:29:37.213Z,14.77
2022-12-19T07:32:05.383Z,14.50
2022-12-19T07:34:33.372Z,13.98
2022-12-19T07:37:01.325Z,15.80
2022-12-19T07:39:29.188Z,14.57
2022-12-19T07:41:57.116Z,14.48
2022-12-19T07:44:34.144Z,15.68
2022-12-19T07:47:02.129Z,14.43
2022-12-19T07:49:29.948Z,13.82
2022-12-19T07:51:58.170Z,16.70
2022-12-19T07:54:26.128Z,15.85
2022-12-19T07:56:54.108Z,14.57
2022-12-19T07:59:27.323Z,14.40
2022-12-19T08:01:57.742Z,14.35
2022-12-19T08:04:27.077Z,15.82
2022-12-19T08:06:54.924Z,17.63
2022-12-19T08:09:22.946Z,15.23
2022-12-19T08:11:51.057Z,14.43
2022-12-19T08:14:19.343Z,14.95
2022-12-19T08:17:18.747Z,14.55
2022-12-19T08:19:35.680Z,15.10
2022-12-19T08:22:03.792Z,15.00
2022-12-19T08:24:31.595Z,14.38
2022-12-19T08:26:59.863Z,16.17
2022-12-19T08:29:27.970Z,16.27
2022-12-19T08:31:55.643Z,16.20
2022-12-19T08:34:23.631Z,17.85
2022-12-19T08:36:51.532Z,14.38
2022-12-19T08:39:19.611Z,16.15
2022-12-19T08:41:47.595Z,16.50
2022-12-19T08:44:16.661Z,18.33
2022-12-19T08:46:50.066Z,16.50
2022-12-19T08:49:19.896Z,16.50
2022-12-19T08:51:48.383Z,16.75
2022-12-19T08:54:17.058Z,19.17
2022-12-19T08:56:46.326Z,16.67
2022-12-19T08:59:25.980Z,16.13
2022-12-19T09:02:00.859Z,17.92
2022-12-19T09:05:58.786Z,19.08
2022-12-19T09:07:17.191Z,15.55
2022-12-19T09:09:45.770Z,19.25
2022-12-19T09:12:14.878Z,17.80
2022-12-19T09:14:44.389Z,17.27
2022-12-19T09:17:12.435Z,19.30
2022-12-19T09:19:40.435Z,17.98
2022-12-19T09:22:10.955Z,18.27
2022-12-19T09:24:39.193Z,17.50
2022-12-19T09:27:07.608Z,18.13
2022-12-19T09:29:36.083Z,18.95
2022-12-19T09:32:04.280Z,19.08
2022-12-19T09:34:37.668Z,19.20
2022-12-19T09:37:10.357Z,19.65
2022-12-19T09:39:48.956Z,18.15
2022-12-19T09:42:26.430Z,16.35
2022-12-19T09:45:00.099Z,20.08
2022-12-19T09:47:31.535Z,18.92
2022-12-19T09:50:01.037Z,18.98
2022-12-19T09:52:43.542Z,21.60
2022-12-19T09:55:20.223Z,16.73
2022-12-19T09:57:55.968Z,18.40
2022-12-19T10:00:24.775Z,18.33
2022-12-19T10:03:24.043Z,19.85
2022-12-19T10:07:07.740Z,19.77
2022-12-19T10:09:17.077Z,21.52
2022-12-19T10:12:39.411Z,17.90
2022-12-19T10:15:01.296Z,18.92
2022-12-19T10:18:12.857Z,17.70
2022-12-19T10:20:46.223Z,19.02
2022-12-19T10:23:45.143Z,16.45
2022-12-19T10:26:19.552Z,16.05
2022-12-19T10:28:50.592Z,17.10
2022-12-19T10:31:30.840Z,15.05
2022-12-19T10:34:08.483Z,16.73
2022-12-19T10:37:19.397Z,17.08
2022-12-19T10:39:53.977Z,18.05
2022-12-19T10:42:44.598Z,17.08
2022-12-19T10:45:21.683Z,17.13
2022-12-19T10:47:56.577Z,16.80
2022-12-19T10:50:29.857Z,16.30
2022-12-19T10:53:04.401Z,16.23
2022-12-19T10:55:44.149Z,15.80
2022-12-19T10:58:38.130Z,18.52
2022-12-19T11:01:42.173Z,18.60
2022-12-19T11:04:26.789Z,18.20
2022-12-19T11:07:05.759Z,15.40
2022-12-19T11:09:42.609Z,17.92
2022-12-19T11:16:18.280Z,18.17
2022-12-19T11:17:50.213Z,18.75
2022-12-19T11:21:09.907Z,13.88
2022-12-19T11:29:25.336Z,17.40
2022-12-19T11:29:33.187Z,17.40
2022-12-19T11:30:49.023Z,16.58
2022-12-19T11:33:18.958Z,14.63
2022-12-19T11:35:55.519Z,15.07
2022-12-19T11:38:37.709Z,18.85
2022-12-19T11:41:17.340Z,15.77
2022-12-19T11:44:03.479Z,17.70
2022-12-19T11:46:43.299Z,17.90
2022-12-19T11:49:29.011Z,19.45
2022-12-19T11:52:06.920Z,17.55
2022-12-19T11:54:50.691Z,18.23
2022-12-19T11:57:20.642Z,17.33
2022-12-19T11:59:53.663Z,18.95
2022-12-19T12:02:45.590Z,22.83
2022-12-19T12:05:49.229Z,15.65
2022-12-19T12:10:30.290Z,14.70
2022-12-19T12:17:03.701Z,17.23
2022-12-19T12:28:05.869Z,16.15
2022-12-19T12:31:00.904Z,17.65
2022-12-19T12:31:49.678Z,15.77
2022-12-19T12:31:52.736Z,16.33
2022-12-19T12:31:57.580Z,16.65
2022-12-19T12:35:56.311Z,17.02
2022-12-19T12:39:33.847Z,16.67
2022-12-19T12:42:30.173Z,15.73
2022-12-19T12:45:00.662Z,17.77
2022-12-19T12:47:30.461Z,17.83
2022-12-19T12:50:04.393Z,18.58
2022-12-19T12:52:39.861Z,22.02
2022-12-19T12:55:31.745Z,21.05
2022-12-19T12:58:00.645Z,19.23
2022-12-19T13:00:31.101Z,18.20
2022-12-19T13:03:12.924Z,20.25
2022-12-19T13:05:44.066Z,18.88
2022-12-19T13:08:26.085Z,18.88
2022-12-19T13:11:33.539Z,20.65
2022-12-19T13:14:02.200Z,20.80
2022-12-19T13:16:45.300Z,18.70
2022-12-19T13:19:27.991Z,22.65
2022-12-19T13:22:09.091Z,18.88
2022-12-19T13:24:43.036Z,18.75
2022-12-19T13:27:29.098Z,17.27
2022-12-19T13:30:14.517Z,15.50
2022-12-19T13:32:42.426Z,19.75
2022-12-19T13:36:38.624Z,20.15
2022-12-19T13:39:56.903Z,18.15
2022-12-19T13:41:47.993Z,19.27
2022-12-19T13:44:22.060Z,16.25
2022-12-19T13:46:50.601Z,15.18
2022-12-19T13:49:34.343Z,20.00
2022-12-19T13:52:05.314Z,17.45
2022-12-19T13:54:53.656Z,18.30
2022-12-19T13:57:26.327Z,19.48
2022-12-19T13:59:59.322Z,16.70
2022-12-19T14:02:44.335Z,18.67
2022-12-19T14:06:16.663Z,22.05
2022-12-19T14:08:27.896Z,22.55
2022-12-19T14:11:34.885Z,16.65
2022-12-19T14:14:23.619Z,22.65
2022-12-19T14:17:05.676Z,16.63
2022-12-19T14:19:42.198Z,18.40
2022-12-19T14:22:20.757Z,20.08
2022-12-19T14:25:07.028Z,17.17
2022-12-19T14:28:19.529Z,19.45
2022-12-19T14:31:02.860Z,17.02
2022-12-19T14:33:46.161Z,16.15
2022-12-19T14:36:29.745Z,16.83
2022-12-19T14:39:26.850Z,16.60
2022-12-19T14:42:09.209Z,19.33
2022-12-19T14:53:10.790Z,18.63
2022-12-19T14:54:01.594Z,16.40
2022-12-19T14:54:24.008Z,17.63
2022-12-19T14:54:30.699Z,16.52
2022-12-19T14:59:05.867Z,19.98
2022-12-19T15:01:36.710Z,16.23
2022-12-19T15:04:52.415Z,17.48
2022-12-19T15:07:08.731Z,18.35
2022-12-19T15:10:58.552Z,20.55
2022-12-19T15:14:49.013Z,19.40
2022-12-19T15:16:24.900Z,16.80
2022-12-19T15:18:57.307Z,15.75
2022-12-19T15:21:26.024Z,17.52
2022-12-19T15:23:54.127Z,18.42
2022-12-19T15:26:35.265Z,19.73
2022-12-19T15:29:07.060Z,22.52
2022-12-19T15:31:43.747Z,18.17
2022-12-19T15:34:34.721Z,18.40
2022-12-19T15:37:15.341Z,17.58
2022-12-19T15:39:44.673Z,19.88
2022-12-19T15:42:21.758Z,20.50
2022-12-19T15:44:51.473Z,20.65
2022-12-19T15:47:24.321Z,19.70
2022-12-19T15:49:52.367Z,16.80
2022-12-19T15:52:21.391Z,22.02
2022-12-19T15:54:50.509Z,20.15
2022-12-19T15:57:29.491Z,17.30
2022-12-19T16:00:01.857Z,19.13
2022-12-19T16:03:22.249Z,20.85
2022-12-19T16:05:26.144Z,19.33
2022-12-19T16:07:54.137Z,20.20
2022-12-19T16:10:22.391Z,24.55
2022-12-19T16:12:55.483Z,20.35
2022-12-19T16:15:31.874Z,22.80
2022-12-19T16:18:04.123Z,19.35
2022-12-19T16:20:40.384Z,19.48
2022-12-19T16:23:09.000Z,21.77
2022-12-19T16:25:50.667Z,20.02
2022-12-19T16:28:27.012Z,17.52
2022-12-19T16:30:59.359Z,22.58
2022-12-19T16:33:30.627Z,19.73
2022-12-19T16:36:07.188Z,17.58
2022-12-19T16:38:36.629Z,20.60
2022-12-19T16:41:04.954Z,21.13
2022-12-19T16:43:37.981Z,21.92
2022-12-19T16:46:07.769Z,22.27
2022-12-19T16:48:36.386Z,19.05
2022-12-19T16:51:04.786Z,21.85
2022-12-19T16:53:36.859Z,22.60
2022-12-19T16:56:05.902Z,20.60
2022-12-19T16:58:39.652Z,20.25
2022-12-19T17:01:10.972Z,17.25
2022-12-19T17:03:42.297Z,22.10
2022-12-19T17:06:17.429Z,20.17
2022-12-19T17:08:46.112Z,21.90
2022-12-19T17:11:26.379Z,20.20
2022-12-19T17:14:08.598Z,18.95
2022-12-19T17:16:38.593Z,18.10
2022-12-19T17:19:07.009Z,19.70
2022-12-19T17:21:35.192Z,19.92
2022-12-19T17:24:06.402Z,18.67
2022-12-19T17:26:34.494Z,21.48
2022-12-19T17:29:02.354Z,17.58
2022-12-19T17:31:38.204Z,20.58
2022-12-19T17:34:28.489Z,16.42
2022-12-19T17:36:58.110Z,18.50
2022-12-19T17:39:29.418Z,19.73
2022-12-19T17:42:07.099Z,19.10
2022-12-19T17:44:35.545Z,18.42
2022-12-19T17:47:04.727Z,17.52
2022-12-19T17:49:33.355Z,20.42
2022-12-19T17:52:01.047Z,18.65
2022-12-19T17:54:30.879Z,19.02
2022-12-19T17:56:58.758Z,21.23
2022-12-19T17:59:26.828Z,19.33
2022-12-19T18:01:55.309Z,18.67
2022-12-19T18:04:24.258Z,18.10
2022-12-19T18:06:52.775Z,23.73
2022-12-19T18:09:23.300Z,22.30
2022-12-19T18:11:53.036Z,23.25
2022-12-19T18:14:21.445Z,18.13
2022-12-19T18:16:51.208Z,21.15
2022-12-19T18:19:21.554Z,22.20
2022-12-19T18:21:49.677Z,23.85
2022-12-19T18:24:17.791Z,23.30
2022-12-19T18:26:45.752Z,22.17
2022-12-19T18:29:14.285Z,24.65
2022-12-19T18:31:50.100Z,21.60
2022-12-19T18:34:23.618Z,20.10
2022-12-19T18:36:52.771Z,24.42
2022-12-19T18:39:31.989Z,22.23
2022-12-19T18:42:00.599Z,20.80
2022-12-19T18:44:28.857Z,19.30
2022-12-19T18:46:56.796Z,19.88
2022-12-19T18:49:24.697Z,23.27
2022-12-19T18:51:52.991Z,22.95
2022-12-19T18:54:22.352Z,19.65
2022-12-19T18:56:53.585Z,20.25
2022-12-19T18:59:21.469Z,21.83
2022-12-19T19:01:49.713Z,22.25
2022-12-19T19:04:18.493Z,19.75
2022-12-19T19:06:51.720Z,20.42
2022-12-19T19:09:21.478Z,21.73
2022-12-19T19:12:06.365Z,22.02
2022-12-19T19:14:34.263Z,20.83
2022-12-19T19:17:23.564Z,20.92
2022-12-19T19:19:51.531Z,20.35
2022-12-19T19:22:19.755Z,21.85
2022-12-19T19:24:47.645Z,22.15
2022-12-19T19:27:16.173Z,21.58
2022-12-19T19:29:43.753Z,17.80
2022-12-19T19:32:12.048Z,22.48
2022-12-19T19:34:41.133Z,20.42
2022-12-19T19:37:13.683Z,22.98
2022-12-19T19:39:42.276Z,18.23
2022-12-19T19:42:10.663Z,19.10
2022-12-19T19:44:38.647Z,21.92
2022-12-19T19:47:06.824Z,24.00
2022-12-19T19:49:37.807Z,19.58
2022-12-19T19:52:08.566Z,20.08
2022-12-19T19:54:36.893Z,21.00
2022-12-19T19:57:05.001Z,20.52
2022-12-19T19:59:33.257Z,21.02
2022-12-19T20:02:01.671Z,22.35
2022-12-19T20:04:30.166Z,20.60
2022-12-19T20:06:58.401Z,21.48
2022-12-19T20:09:29.084Z,25.33
2022-12-19T20:11:57.482Z,21.77
2022-12-19T20:14:29.929Z,21.08
2022-12-19T20:16:58.332Z,21.38
2022-12-19T20:19:26.799Z,24.08
2022-12-19T20:21:55.476Z,20.02
2022-12-19T20:24:23.880Z,21.25
2022-12-19T20:26:51.953Z,24.15
2022-12-19T20:29:20.981Z,21.92
2022-12-19T20:31:49.412Z,21.65
2022-12-19T20:34:20.048Z,23.08
2022-12-19T20:37:02.667Z,20.85
2022-12-19T20:39:32.269Z,25.63
2022-12-19T20:42:00.779Z,22.63
2022-12-19T20:44:29.143Z,20.90
2022-12-19T20:46:57.984Z,24.75
2022-12-19T20:49:26.019Z,21.17
2022-12-19T20:51:55.065Z,22.70
2022-12-19T20:54:24.570Z,23.08
2022-12-19T20:56:52.961Z,25.33
2022-12-19T20:59:21.422Z,21.98
2022-12-19T21:01:49.893Z,22.27
2022-12-19T21:04:18.536Z,22.23
2022-12-19T21:06:46.526Z,23.98
2022-12-19T21:09:15.415Z,22.67
2022-12-19T21:11:43.850Z,21.40
2022-12-19T21:14:12.434Z,22.55
2022-12-19T21:16:40.689Z,21.05
2022-12-19T21:19:11.612Z,24.38
2022-12-19T21:21:39.844Z,21.95
2022-12-19T21:24:08.035Z,21.80
2022-12-19T21:26:36.089Z,23.55
2022-12-19T21:29:05.176Z,21.60
2022-12-19T21:31:33.606Z,21.35
2022-12-19T21:34:02.571Z,24.15
2022-12-19T21:36:31.276Z,21.50
2022-12-19T21:39:02.011Z,21.88
2022-12-19T21:41:30.619Z,21.60
2022-12-19T21:44:00.719Z,23.02
2022-12-19T21:46:30.941Z,21.70
2022-12-19T21:49:00.102Z,23.13
2022-12-19T21:51:30.793Z,20.80
2022-12-19T21:54:01.429Z,20.58
2022-12-19T21:56:39.125Z,19.45
2022-12-19T21:59:12.468Z,21.35
2022-12-19T22:01:41.900Z,20.67
2022-12-19T22:04:21.032Z,20.77
2022-12-19T22:06:50.575Z,24.15
2022-12-19T22:09:21.489Z,20.35
2022-12-19T22:11:50.149Z,24.73
2022-12-19T22:14:18.455Z,22.45
2022-12-19T22:16:46.736Z,21.10
2022-12-19T22:19:16.992Z,21.55
2022-12-19T22:21:46.714Z,23.85
2022-12-19T22:24:16.230Z,21.40
2022-12-19T22:26:45.311Z,20.40
2022-12-19T22:29:16.812Z,20.08
2022-12-19T22:31:46.029Z,20.77
2022-12-19T22:34:20.315Z,22.95
2022-12-19T22:36:49.900Z,22.23
2022-12-19T22:39:20.271Z,25.30
2022-12-19T22:41:48.463Z,20.55
2022-12-19T22:44:26.700Z,20.83
2022-12-19T22:46:55.591Z,24.55
2022-12-19T22:49:24.033Z,20.45
2022-12-19T22:51:52.394Z,22.23
2022-12-19T22:54:20.555Z,24.83
2022-12-19T22:56:51.441Z,25.80
2022-12-19T22:59:19.548Z,21.48
2022-12-19T23:01:48.186Z,22.05
2022-12-19T23:04:19.245Z,23.55
2022-12-19T23:06:47.450Z,25.13
2022-12-19T23:09:19.204Z,24.30
2022-12-19T23:11:49.474Z,29.17
2022-12-19T23:14:20.885Z,23.25
2022-12-19T23:16:49.467Z,24.25
2022-12-19T23:19:17.786Z,25.17
2022-12-19T23:21:46.255Z,34.28
2022-12-19T23:24:14.414Z,22.83
2022-12-19T23:26:42.872Z,27.92
2022-12-19T23:29:13.717Z,28.67
2022-12-19T23:31:44.021Z,26.05
2022-12-19T23:34:12.926Z,25.27
2022-12-19T23:39:35.860Z,24.80
2022-12-19T23:42:04.168Z,21.60
2022-12-19T23:44:32.204Z,26.13
2022-12-19T23:47:03.385Z,25.45
2022-12-19T23:49:33.497Z,22.45
2022-12-19T23:52:02.027Z,27.42
2022-12-19T23:54:30.002Z,22.33
2022-12-19T23:56:58.642Z,25.52
2022-12-19T23:59:26.879Z,24.90
